createdAt,value
2022-11-23T00:01:20.445Z,3.37
2022-11-23T00:03:49.359Z,2.47
2022-11-23T00:06:17.210Z,3.33
2022-11-23T00:08:44.848Z,2.77
2022-11-23T00:11:12.538Z,4.30
2022-11-23T00:13:40.776Z,3.37
2022-11-23T00:16:15.614Z,2.90
2022-11-23T00:18:43.233Z,3.00
2022-11-23T00:21:12.235Z,2.93
2022-11-23T00:23:39.559Z,3.87
2022-11-23T00:26:07.918Z,2.83
2022-11-23T00:28:41.176Z,3.10
2022-11-23T00:31:16.200Z,3.10
2022-11-23T00:33:48.560Z,3.33
2022-11-23T00:36:18.070Z,3.20
2022-11-23T00:38:53.691Z,3.30
2022-11-23T00:41:22.991Z,3.50
2022-11-23T00:43:53.003Z,4.87
2022-11-23T00:46:23.158Z,3.03
2022-11-23T00:48:51.686Z,2.63
2022-11-23T00:51:23.423Z,2.57
2022-11-23T00:53:51.541Z,2.97
2022-11-23T00:56:19.240Z,3.43
2022-11-23T00:58:51.989Z,2.70
2022-11-23T01:01:20.796Z,3.17
2022-11-23T01:03:49.623Z,4.37
2022-11-23T01:06:22.543Z,3.27
2022-11-23T01:08:52.240Z,4.83
2022-11-23T01:11:23.311Z,3.10
2022-11-23T01:13:51.329Z,3.93
2022-11-23T01:16:24.173Z,3.00
2022-11-23T01:18:54.012Z,3.57
2022-11-23T01:21:23.707Z,3.27
2022-11-23T01:23:51.079Z,3.60
2022-11-23T01:26:18.901Z,3.03
2022-11-23T01:28:46.461Z,4.17
2022-11-23T01:31:16.857Z,3.23
2022-11-23T01:33:45.951Z,4.07
2022-11-23T01:36:18.141Z,3.17
2022-11-23T01:38:48.089Z,3.30
2022-11-23T01:41:17.639Z,3.90
2022-11-23T01:43:45.430Z,2.90
2022-11-23T01:46:12.844Z,3.23
2022-11-23T01:48:43.281Z,3.60
2022-11-23T01:51:15.029Z,2.80
2022-11-23T01:53:43.153Z,3.63
2022-11-23T01:56:13.776Z,3.07
2022-11-23T01:58:43.285Z,3.10
2022-11-23T02:01:10.771Z,4.00
2022-11-23T02:03:38.463Z,3.93
2022-11-23T02:06:12.425Z,2.73
2022-11-23T02:08:40.071Z,3.60
2022-11-23T02:11:08.241Z,3.10
2022-11-23T02:13:35.748Z,3.40
2022-11-23T02:16:03.409Z,3.60
2022-11-23T02:18:31.954Z,2.97
2022-11-23T02:21:01.038Z,3.00
2022-11-23T02:23:31.618Z,3.27
2022-11-23T02:26:00.979Z,3.37
2022-11-23T02:28:30.790Z,3.47
2022-11-23T02:30:58.076Z,3.50
2022-11-23T02:33:25.459Z,3.50
2022-11-23T02:35:57.913Z,2.90
2022-11-23T02:38:26.309Z,3.70
2022-11-23T02:40:53.843Z,3.30
2022-11-23T02:43:22.978Z,3.10
2022-11-23T02:45:58.519Z,3.40
2022-11-23T02:48:26.283Z,4.80
2022-11-23T02:50:53.693Z,3.20
2022-11-23T02:53:21.191Z,2.90
2022-11-23T02:55:48.638Z,3.03
2022-11-23T02:58:18.173Z,3.10
2022-11-23T03:00:47.081Z,3.57
2022-11-23T03:03:17.724Z,3.73
2022-11-23T03:05:44.996Z,2.97
2022-11-23T03:08:12.226Z,3.20
2022-11-23T03:10:40.568Z,3.10
2022-11-23T03:13:08.484Z,2.83
2022-11-23T03:15:38.025Z,3.00
2022-11-23T03:18:06.451Z,3.27
2022-11-23T03:20:34.554Z,3.10
2022-11-23T03:23:01.943Z,3.60
2022-11-23T03:25:29.368Z,3.70
2022-11-23T03:27:59.282Z,3.00
2022-11-23T03:30:27.455Z,3.10
2022-11-23T03:32:55.618Z,3.00
2022-11-23T03:35:24.395Z,3.70
2022-11-23T03:38:12.151Z,3.23
2022-11-23T03:40:39.684Z,3.27
2022-11-23T03:43:33.176Z,3.30
2022-11-23T03:46:00.833Z,3.40
2022-11-23T03:48:28.085Z,3.30
2022-11-23T03:50:55.319Z,3.27
2022-11-23T03:53:22.499Z,3.77
2022-11-23T03:55:49.647Z,3.70
2022-11-23T03:58:16.852Z,3.50
2022-11-23T04:00:44.104Z,3.50
2022-11-23T04:03:13.789Z,3.10
2022-11-23T04:06:00.156Z,3.00
2022-11-23T04:09:02.271Z,3.10
2022-11-23T04:11:52.864Z,3.40
2022-11-23T04:14:21.401Z,3.57
2022-11-23T04:16:48.771Z,3.20
2022-11-23T04:19:17.716Z,3.27
2022-11-23T04:21:44.998Z,3.07
2022-11-23T04:24:13.587Z,3.73
2022-11-23T04:26:42.475Z,3.83
2022-11-23T04:29:11.170Z,3.60
2022-11-23T04:31:41.898Z,3.27
2022-11-23T04:34:14.715Z,3.10
2022-11-23T04:36:42.595Z,3.47
2022-11-23T04:39:13.460Z,3.20
2022-11-23T04:42:00.554Z,3.17
2022-11-23T04:44:27.727Z,3.40
2022-11-23T04:47:01.080Z,3.03
2022-11-23T04:49:28.299Z,3.77
2022-11-23T04:51:55.534Z,4.00
2022-11-23T04:54:29.807Z,3.00
2022-11-23T04:56:59.675Z,3.47
2022-11-23T04:59:26.839Z,3.40
2022-11-23T05:01:54.041Z,3.70
2022-11-23T05:04:59.558Z,3.30
2022-11-23T05:07:30.700Z,3.60
2022-11-23T05:10:02.347Z,3.23
2022-11-23T05:12:30.116Z,3.60
2022-11-23T05:14:58.767Z,3.90
2022-11-23T05:17:33.584Z,2.83
2022-11-23T05:20:00.918Z,4.07
2022-11-23T05:22:30.781Z,3.57
2022-11-23T05:24:59.206Z,3.43
2022-11-23T05:27:27.433Z,3.00
2022-11-23T05:29:54.941Z,3.20
2022-11-23T05:32:22.521Z,4.07
2022-11-23T05:34:49.998Z,2.90
2022-11-23T05:37:19.092Z,3.77
2022-11-23T05:39:54.286Z,3.70
2022-11-23T05:42:22.216Z,3.63
2022-11-23T05:44:51.670Z,3.57
2022-11-23T05:47:23.801Z,3.90
2022-11-23T05:49:51.228Z,4.10
2022-11-23T05:52:22.265Z,3.20
2022-11-23T05:54:49.481Z,3.23
2022-11-23T05:57:17.684Z,3.23
2022-11-23T05:59:46.110Z,3.50
2022-11-23T06:02:18.435Z,3.67
2022-11-23T06:04:47.512Z,3.37
2022-11-23T06:07:19.742Z,3.40
2022-11-23T06:09:58.894Z,3.50
2022-11-23T06:12:27.871Z,4.77
2022-11-23T06:14:57.257Z,4.10
2022-11-23T06:17:26.107Z,3.63
2022-11-23T06:19:57.186Z,3.30
2022-11-23T06:22:25.382Z,3.50
2022-11-23T06:25:04.671Z,3.30
2022-11-23T06:27:54.557Z,3.60
2022-11-23T06:30:41.798Z,3.60
2022-11-23T06:33:09.519Z,4.03
2022-11-23T06:35:52.991Z,3.57
2022-11-23T06:38:20.484Z,3.37
2022-11-23T06:40:54.242Z,3.40
2022-11-23T06:43:21.813Z,4.80
2022-11-23T06:45:49.896Z,5.47
2022-11-23T06:48:17.069Z,3.90
2022-11-23T06:50:48.821Z,4.30
2022-11-23T06:53:17.341Z,4.30
2022-11-23T06:55:59.024Z,3.80
2022-11-23T06:58:26.372Z,4.27
2022-11-23T07:00:55.043Z,4.40
2022-11-23T07:03:24.935Z,4.00
2022-11-23T07:06:06.019Z,3.87
2022-11-23T07:08:34.293Z,3.30
2022-11-23T07:11:11.858Z,3.27
2022-11-23T07:13:41.658Z,3.90
2022-11-23T07:16:09.686Z,3.83
2022-11-23T07:18:38.592Z,3.40
2022-11-23T07:21:07.026Z,4.20
2022-11-23T07:23:38.573Z,3.70
2022-11-23T07:26:05.839Z,3.90
2022-11-23T07:28:35.315Z,3.40
2022-11-23T07:31:02.553Z,3.97
2022-11-23T07:33:30.467Z,4.27
2022-11-23T07:36:03.667Z,4.13
2022-11-23T07:38:32.179Z,3.83
2022-11-23T07:41:03.563Z,4.10
2022-11-23T07:43:46.563Z,4.47
2022-11-23T07:46:14.299Z,3.53
2022-11-23T07:48:41.545Z,5.07
2022-11-23T07:51:10.919Z,3.97
2022-11-23T07:53:38.076Z,4.17
2022-11-23T07:56:07.474Z,4.10
2022-11-23T07:58:34.705Z,4.20
2022-11-23T08:01:02.957Z,5.10
2022-11-23T08:03:30.693Z,3.93
2022-11-23T08:05:58.144Z,3.50
2022-11-23T08:08:25.314Z,5.53
2022-11-23T08:10:54.242Z,3.70
2022-11-23T08:13:22.407Z,3.70
2022-11-23T08:15:54.841Z,4.33
2022-11-23T08:18:22.805Z,4.33
2022-11-23T08:20:50.023Z,4.10
2022-11-23T08:23:17.187Z,5.10
2022-11-23T08:25:44.499Z,4.30
2022-11-23T08:28:11.774Z,7.57
2022-11-23T08:30:39.270Z,5.27
2022-11-23T08:33:07.492Z,4.10
2022-11-23T08:35:36.386Z,4.97
2022-11-23T08:38:04.032Z,4.77
2022-11-23T08:40:31.591Z,4.20
2022-11-23T08:42:58.783Z,3.90
2022-11-23T08:45:26.358Z,3.73
2022-11-23T08:47:53.966Z,3.33
2022-11-23T08:50:22.423Z,3.97
2022-11-23T08:52:55.269Z,3.80
2022-11-23T08:55:22.434Z,3.83
2022-11-23T08:57:50.627Z,3.77
2022-11-23T09:00:18.067Z,4.37
2022-11-23T09:02:45.274Z,4.83
2022-11-23T09:05:12.459Z,3.97
2022-11-23T09:07:39.941Z,4.07
2022-11-23T09:10:13.635Z,4.47
2022-11-23T09:12:45.375Z,3.27
2022-11-23T09:15:12.714Z,3.60
2022-11-23T09:17:40.156Z,4.20
2022-11-23T09:20:10.916Z,4.80
2022-11-23T09:22:38.624Z,3.50
2022-11-23T09:25:07.192Z,3.57
2022-11-23T09:27:35.003Z,3.80
2022-11-23T09:30:03.563Z,3.90
2022-11-23T09:32:32.499Z,4.53
2022-11-23T09:34:59.725Z,4.00
2022-11-23T09:37:26.926Z,3.30
2022-11-23T09:39:54.271Z,3.90
2022-11-23T09:42:25.232Z,3.70
2022-11-23T09:44:58.620Z,4.27
2022-11-23T09:47:25.799Z,3.53
2022-11-23T09:49:59.477Z,3.87
2022-11-23T09:52:27.068Z,3.50
2022-11-23T09:54:56.110Z,4.10
2022-11-23T09:57:26.781Z,3.47
2022-11-23T09:59:58.568Z,3.73
2022-11-23T10:02:28.740Z,3.77
2022-11-23T10:04:56.730Z,3.40
2022-11-23T10:07:31.096Z,3.30
2022-11-23T10:10:03.685Z,3.20
2022-11-23T10:12:40.303Z,4.80
2022-11-23T10:15:14.148Z,3.80
2022-11-23T10:18:00.356Z,3.13
2022-11-23T10:20:27.582Z,3.20
2022-11-23T10:22:58.410Z,3.07
2022-11-23T10:25:26.617Z,3.30
2022-11-23T10:27:57.560Z,3.30
2022-11-23T10:30:24.714Z,3.33
2022-11-23T10:32:57.715Z,3.40
2022-11-23T10:35:29.743Z,3.03
2022-11-23T10:38:18.381Z,2.80
2022-11-23T10:41:04.001Z,3.67
2022-11-23T10:43:54.636Z,2.90
2022-11-23T10:46:32.495Z,2.90
2022-11-23T10:49:10.266Z,4.27
2022-11-23T10:51:38.609Z,2.43
2022-11-23T10:54:09.798Z,3.97
2022-11-23T10:56:46.822Z,3.27
2022-11-23T10:59:34.672Z,3.10
2022-11-23T11:02:10.752Z,2.80
2022-11-23T11:04:38.038Z,2.47
2022-11-23T11:07:19.426Z,3.27
2022-11-23T11:09:54.675Z,2.17
2022-11-23T11:12:22.098Z,3.20
2022-11-23T11:15:10.735Z,2.90
2022-11-23T11:17:39.549Z,3.53
2022-11-23T11:20:31.292Z,2.80
2022-11-23T11:23:18.760Z,3.50
2022-11-23T11:25:47.317Z,2.90
2022-11-23T11:28:33.688Z,3.00
2022-11-23T11:31:13.147Z,3.00
2022-11-23T11:33:47.508Z,2.93
2022-11-23T11:36:17.029Z,2.93
2022-11-23T11:39:07.826Z,2.90
2022-11-23T11:41:36.054Z,2.93
2022-11-23T11:44:08.883Z,5.10
2022-11-23T11:46:41.022Z,2.93
2022-11-23T11:49:13.541Z,2.83
2022-11-23T11:51:50.681Z,2.63
2022-11-23T11:54:40.815Z,3.00
2022-11-23T11:57:15.443Z,2.90
2022-11-23T11:59:45.277Z,3.50
2022-11-23T12:02:15.460Z,3.03
2022-11-23T12:05:04.033Z,4.53
2022-11-23T12:07:33.134Z,2.80
2022-11-23T12:10:04.337Z,3.00
2022-11-23T12:12:35.636Z,3.00
2022-11-23T12:15:11.071Z,3.13
2022-11-23T12:18:16.054Z,2.70
2022-11-23T12:20:56.204Z,2.60
2022-11-23T12:23:32.102Z,2.60
2022-11-23T12:26:09.190Z,3.53
2022-11-23T12:28:36.694Z,2.60
2022-11-23T12:31:22.782Z,2.70
2022-11-23T12:33:55.575Z,4.40
2022-11-23T12:36:28.873Z,3.83
2022-11-23T12:38:58.710Z,4.23
2022-11-23T12:41:29.001Z,2.73
2022-11-23T12:44:04.143Z,2.80
2022-11-23T12:46:45.845Z,2.77
2022-11-23T12:49:22.188Z,2.43
2022-11-23T12:51:49.360Z,3.03
2022-11-23T12:54:26.344Z,2.90
2022-11-23T12:57:10.857Z,2.67
2022-11-23T12:59:42.737Z,2.50
2022-11-23T13:02:22.426Z,2.30
2022-11-23T13:05:03.081Z,2.27
2022-11-23T13:07:44.631Z,2.90
2022-11-23T13:10:20.828Z,2.50
2022-11-23T13:12:47.988Z,2.07
2022-11-23T13:15:34.236Z,2.40
2022-11-23T13:18:13.778Z,2.30
2022-11-23T13:20:59.072Z,2.70
2022-11-23T13:23:26.315Z,2.33
2022-11-23T13:26:12.455Z,2.20
2022-11-23T13:28:39.698Z,2.30
2022-11-23T13:31:18.478Z,1.70
2022-11-23T13:33:46.919Z,1.73
2022-11-23T13:37:04.356Z,3.10
2022-11-23T13:39:40.171Z,1.90
2022-11-23T13:42:10.786Z,2.33
2022-11-23T13:44:38.272Z,2.30
2022-11-23T13:47:08.071Z,2.90
2022-11-23T13:49:38.390Z,2.20
2022-11-23T13:52:23.172Z,2.00
2022-11-23T13:54:55.526Z,2.33
2022-11-23T13:57:22.831Z,2.33
2022-11-23T13:59:51.904Z,2.50
2022-11-23T14:02:30.376Z,1.87
2022-11-23T14:05:16.558Z,2.40
2022-11-23T14:07:46.251Z,2.27
2022-11-23T14:10:18.897Z,2.57
2022-11-23T14:12:46.066Z,3.07
2022-11-23T14:15:18.402Z,2.07
2022-11-23T14:18:00.884Z,2.20
2022-11-23T14:20:47.376Z,2.20
2022-11-23T14:23:21.428Z,1.97
2022-11-23T14:26:07.326Z,1.93
2022-11-23T14:28:53.396Z,2.63
2022-11-23T14:31:31.545Z,2.57
2022-11-23T14:34:21.860Z,2.10
2022-11-23T14:37:01.355Z,1.93
2022-11-23T14:39:28.609Z,2.67
2022-11-23T14:41:59.471Z,2.37
2022-11-23T14:44:27.830Z,3.00
2022-11-23T14:47:02.594Z,2.73
2022-11-23T14:49:30.168Z,2.77
2022-11-23T14:51:58.349Z,4.20
2022-11-23T14:54:26.076Z,5.70
2022-11-23T14:56:59.479Z,4.87
2022-11-23T14:59:30.794Z,3.97
2022-11-23T15:01:59.389Z,4.27
2022-11-23T15:04:34.939Z,4.80
2022-11-23T15:07:14.259Z,2.83
2022-11-23T15:09:51.981Z,3.50
2022-11-23T15:12:23.773Z,3.00
2022-11-23T15:14:51.816Z,2.40
2022-11-23T15:17:20.599Z,2.20
2022-11-23T15:20:01.099Z,2.93
2022-11-23T15:22:28.900Z,2.50
2022-11-23T15:25:06.583Z,2.37
2022-11-23T15:27:33.712Z,3.33
2022-11-23T15:30:01.201Z,3.70
2022-11-23T15:32:34.598Z,2.30
2022-11-23T15:35:07.527Z,2.93
2022-11-23T15:37:40.045Z,3.00
2022-11-23T15:40:07.840Z,2.80
2022-11-23T15:42:35.020Z,3.00
2022-11-23T15:45:02.363Z,3.20
2022-11-23T15:47:30.915Z,3.20
2022-11-23T15:50:09.874Z,3.33
2022-11-23T15:52:38.232Z,4.80
2022-11-23T15:55:09.879Z,4.40
2022-11-23T15:57:39.703Z,3.87
2022-11-23T16:00:07.457Z,4.17
2022-11-23T16:02:40.526Z,5.60
2022-11-23T16:05:13.926Z,4.47
2022-11-23T16:08:13.607Z,4.20
2022-11-23T16:10:53.986Z,4.40
2022-11-23T16:13:37.831Z,4.20
2022-11-23T16:16:15.066Z,4.90
2022-11-23T16:18:45.989Z,4.67
2022-11-23T16:21:17.919Z,3.50
2022-11-23T16:23:49.495Z,4.30
2022-11-23T16:26:17.042Z,3.60
2022-11-23T16:28:52.157Z,4.30
2022-11-23T16:31:39.399Z,3.90
2022-11-23T16:34:14.013Z,4.03
2022-11-23T16:36:41.651Z,5.13
2022-11-23T16:39:09.942Z,5.00
2022-11-23T16:41:37.146Z,4.20
2022-11-23T16:44:04.471Z,3.53
2022-11-23T16:46:39.074Z,5.53
2022-11-23T16:49:19.305Z,4.60
2022-11-23T16:51:54.971Z,6.13
2022-11-23T16:54:25.324Z,3.37
2022-11-23T16:56:53.246Z,2.87
2022-11-23T16:59:22.363Z,3.50
2022-11-23T17:01:56.593Z,3.47
2022-11-23T17:04:24.744Z,3.60
2022-11-23T17:06:51.974Z,3.00
2022-11-23T17:09:19.100Z,3.50
2022-11-23T17:11:47.996Z,3.50
2022-11-23T17:14:18.793Z,2.90
2022-11-23T17:16:47.404Z,2.90
2022-11-23T17:19:18.775Z,3.60
2022-11-23T17:21:47.169Z,3.70
2022-11-23T17:24:14.650Z,3.87
2022-11-23T17:26:43.380Z,3.00
2022-11-23T17:29:16.128Z,3.53
2022-11-23T17:31:46.109Z,3.20
2022-11-23T17:34:13.608Z,3.50
2022-11-23T17:36:41.438Z,3.70
2022-11-23T17:39:08.617Z,3.63
2022-11-23T17:41:35.772Z,3.50
2022-11-23T17:44:02.931Z,3.20
2022-11-23T17:46:31.346Z,3.07
2022-11-23T17:48:59.667Z,3.60
2022-11-23T17:51:28.903Z,3.37
2022-11-23T17:53:56.188Z,3.73
2022-11-23T17:56:25.694Z,3.23
2022-11-23T17:58:53.181Z,4.50
2022-11-23T18:01:21.551Z,3.63
2022-11-23T18:03:49.493Z,3.43
2022-11-23T18:06:21.364Z,3.80
2022-11-23T18:08:50.783Z,3.40
2022-11-23T18:11:18.706Z,4.20
2022-11-23T18:13:47.379Z,4.10
2022-11-23T18:16:14.731Z,3.77
2022-11-23T18:18:41.938Z,3.63
2022-11-23T18:21:14.299Z,3.77
2022-11-23T18:23:42.384Z,3.90
2022-11-23T18:26:23.069Z,4.00
2022-11-23T18:28:50.516Z,3.87
2022-11-23T18:31:17.807Z,3.80
2022-11-23T18:33:45.303Z,4.30
2022-11-23T18:36:12.886Z,3.73
2022-11-23T18:38:40.526Z,4.23
2022-11-23T18:41:07.872Z,3.90
2022-11-23T18:43:36.157Z,4.83
2022-11-23T18:46:07.233Z,4.10
2022-11-23T18:48:34.423Z,4.13
2022-11-23T18:51:02.865Z,4.43
2022-11-23T18:53:33.163Z,4.13
2022-11-23T18:56:04.642Z,3.70
2022-11-23T18:58:35.696Z,3.77
2022-11-23T19:01:30.193Z,4.40
2022-11-23T19:03:57.442Z,3.13
2022-11-23T19:06:25.107Z,3.50
2022-11-23T19:08:54.405Z,4.77
2022-11-23T19:11:24.215Z,3.47
2022-11-23T19:13:52.798Z,3.33
2022-11-23T19:16:28.692Z,3.73
2022-11-23T19:19:05.790Z,3.30
2022-11-23T19:21:34.010Z,3.33
2022-11-23T19:24:01.680Z,4.00
2022-11-23T19:26:29.385Z,3.90
2022-11-23T19:28:57.794Z,4.13
2022-11-23T19:31:26.953Z,9.20
2022-11-23T19:33:56.656Z,4.97
2022-11-23T19:36:24.668Z,4.60
2022-11-23T19:38:52.347Z,5.70
2022-11-23T19:41:23.050Z,4.40
2022-11-23T19:43:54.612Z,4.37
2022-11-23T19:46:21.987Z,6.37
2022-11-23T19:48:49.444Z,5.83
2022-11-23T19:51:18.129Z,5.30
2022-11-23T19:53:46.403Z,4.80
2022-11-23T19:56:15.503Z,5.30
2022-11-23T19:58:43.087Z,5.47
2022-11-23T20:01:14.760Z,6.23
2022-11-23T20:03:43.216Z,5.20
2022-11-23T20:06:13.638Z,5.77
2022-11-23T20:08:40.876Z,4.97
2022-11-23T20:11:08.792Z,5.37
2022-11-23T20:13:36.402Z,4.97
2022-11-23T20:16:08.009Z,5.73
2022-11-23T20:18:35.520Z,6.00
2022-11-23T20:21:02.781Z,5.70
2022-11-23T20:23:31.375Z,6.43
2022-11-23T20:25:58.835Z,5.77
2022-11-23T20:28:26.022Z,5.50
2022-11-23T20:30:53.227Z,5.80
2022-11-23T20:33:20.661Z,5.67
2022-11-23T20:35:49.064Z,5.70
2022-11-23T20:38:17.356Z,6.20
2022-11-23T20:40:44.627Z,8.47
2022-11-23T20:43:13.383Z,6.60
2022-11-23T20:45:41.714Z,5.33
2022-11-23T20:48:08.871Z,6.10
2022-11-23T20:50:39.060Z,5.80
2022-11-23T20:53:06.319Z,6.67
2022-11-23T20:55:33.516Z,6.17
2022-11-23T20:58:00.677Z,7.20
2022-11-23T21:00:27.828Z,6.30
2022-11-23T21:02:58.368Z,6.90
2022-11-23T21:05:25.624Z,7.33
2022-11-23T21:07:52.868Z,8.43
2022-11-23T21:10:38.775Z,6.63
2022-11-23T21:13:24.577Z,7.10
2022-11-23T21:15:52.878Z,7.60
2022-11-23T21:18:20.087Z,7.97
2022-11-23T21:20:47.237Z,8.00
2022-11-23T21:23:14.445Z,8.50
2022-11-23T21:25:41.592Z,8.50
2022-11-23T21:28:08.757Z,8.87
2022-11-23T21:30:36.504Z,9.93
2022-11-23T21:33:03.727Z,9.47
2022-11-23T21:35:30.885Z,9.40
2022-11-23T21:37:58.647Z,7.70
2022-11-23T21:40:26.344Z,8.63
2022-11-23T21:42:53.548Z,8.30
2022-11-23T21:45:20.794Z,8.87
2022-11-23T21:47:48.609Z,8.37
2022-11-23T21:50:15.819Z,9.13
2022-11-23T21:52:43.002Z,8.40
2022-11-23T21:55:10.276Z,9.43
2022-11-23T21:57:38.528Z,8.40
2022-11-23T22:00:05.888Z,8.03
2022-11-23T22:02:39.877Z,8.20
2022-11-23T22:05:07.083Z,7.90
2022-11-23T22:07:34.387Z,7.80
2022-11-23T22:10:01.661Z,7.63
2022-11-23T22:12:29.049Z,8.00
2022-11-23T22:14:56.244Z,7.23
2022-11-23T22:17:24.586Z,6.50
2022-11-23T22:19:51.777Z,7.30
2022-11-23T22:22:19.224Z,8.13
2022-11-23T22:24:46.440Z,9.60
2022-11-23T22:27:13.644Z,7.30
2022-11-23T22:29:40.781Z,8.40
2022-11-23T22:32:07.943Z,8.33
2022-11-23T22:34:35.905Z,7.00
2022-11-23T22:37:08.849Z,8.40
2022-11-23T22:39:37.683Z,8.87
2022-11-23T22:42:05.079Z,8.20
2022-11-23T22:44:32.565Z,8.07
2022-11-23T22:47:02.968Z,8.37
2022-11-23T22:49:30.159Z,8.60
2022-11-23T22:51:57.905Z,7.90
2022-11-23T22:54:25.173Z,7.33
2022-11-23T22:56:53.322Z,9.97
2022-11-23T22:59:20.440Z,7.60
2022-11-23T23:01:47.598Z,8.27
2022-11-23T23:04:14.911Z,7.60
2022-11-23T23:06:42.551Z,8.00
2022-11-23T23:09:10.550Z,8.63
2022-11-23T23:11:39.910Z,7.60
2022-11-23T23:14:09.287Z,7.70
2022-11-23T23:16:37.870Z,7.00
2022-11-23T23:19:06.321Z,7.60
2022-11-23T23:21:33.870Z,7.30
2022-11-23T23:24:01.445Z,7.80
2022-11-23T23:26:29.390Z,7.90
2022-11-23T23:28:57.803Z,7.00
2022-11-23T23:31:25.663Z,7.50
2022-11-23T23:33:56.999Z,7.10
2022-11-23T23:36:25.125Z,7.17
2022-11-23T23:38:52.880Z,6.40
2022-11-23T23:41:20.393Z,7.40
2022-11-23T23:43:48.268Z,7.70
2022-11-23T23:46:17.294Z,6.77
2022-11-23T23:48:45.405Z,6.77
2022-11-23T23:51:15.529Z,6.90
2022-11-23T23:53:45.284Z,7.20
2022-11-23T23:56:19.324Z,6.70
2022-11-23T23:58:46.889Z,7.47
